sensor_id;sensor_type;location;lat;lon;timestamp;temperature;humidity
64198;SHT31;50512;53.666;9.700;2023-12-20T00:00:25;4.44;99.99
64198;SHT31;50512;53.666;9.700;2023-12-20T00:02:51;4.43;99.99
64198;SHT31;50512;53.666;9.700;2023-12-20T00:05:18;4.35;99.99
64198;SHT31;50512;53.666;9.700;2023-12-20T00:07:44;4.39;99.99
64198;SHT31;50512;53.666;9.700;2023-12-20T00:10:11;4.43;99.99
64198;SHT31;50512;53.666;9.700;2023-12-20T00:12:39;4.52;99.99
64198;SHT31;50512;53.666;9.700;2023-12-20T00:15:07;4.63;99.99
64198;SHT31;50512;53.666;9.700;2023-12-20T00:17:33;4.60;99.99
64198;SHT31;50512;53.666;9.700;2023-12-20T00:20:00;4.64;99.99
64198;SHT31;50512;53.666;9.700;2023-12-20T00:22:26;4.63;99.99
64198;SHT31;50512;53.666;9.700;2023-12-20T00:24:52;4.56;99.99
64198;SHT31;50512;53.666;9.700;2023-12-20T00:27:19;4.57;99.99
64198;SHT31;50512;53.666;9.700;2023-12-20T00:29:47;4.60;99.99
64198;SHT31;50512;53.666;9.700;2023-12-20T00:32:15;4.65;99.99
64198;SHT31;50512;53.666;9.700;2023-12-20T00:34:42;4.75;99.99
64198;SHT31;50512;53.666;9.700;2023-12-20T00:37:08;4.84;99.99
64198;SHT31;50512;53.666;9.700;2023-12-20T00:39:35;4.87;99.99
64198;SHT31;50512;53.666;9.700;2023-12-20T00:42:01;4.92;99.99
64198;SHT31;50512;53.666;9.700;2023-12-20T00:44:28;4.89;99.99
64198;SHT31;50512;53.666;9.700;2023-12-20T00:46:56;4.85;99.99
64198;SHT31;50512;53.666;9.700;2023-12-20T00:49:22;4.75;99.99
64198;SHT31;50512;53.666;9.700;2023-12-20T00:51:49;4.80;99.99
64198;SHT31;50512;53.666;9.700;2023-12-20T00:54:15;4.67;99.99
64198;SHT31;50512;53.666;9.700;2023-12-20T00:56:42;4.63;99.99
64198;SHT31;50512;53.666;9.700;2023-12-20T00:59:08;4.63;99.99
64198;SHT31;50512;53.666;9.700;2023-12-20T01:01:35;4.60;99.99
64198;SHT31;50512;53.666;9.700;2023-12-20T01:04:03;4.52;99.99
64198;SHT31;50512;53.666;9.700;2023-12-20T01:06:29;4.53;99.99
64198;SHT31;50512;53.666;9.700;2023-12-20T01:08:55;4.56;99.99
64198;SHT31;50512;53.666;9.700;2023-12-20T01:11:22;4.50;99.99
64198;SHT31;50512;53.666;9.700;2023-12-20T01:13:48;4.49;99.99
64198;SHT31;50512;53.666;9.700;2023-12-20T01:16:15;4.49;99.99
64198;SHT31;50512;53.666;9.700;2023-12-20T01:18:41;4.49;99.99
64198;SHT31;50512;53.666;9.700;2023-12-20T01:21:09;4.49;99.99
64198;SHT31;50512;53.666;9.700;2023-12-20T01:23:35;4.50;99.99
64198;SHT31;50512;53.666;9.700;2023-12-20T01:26:02;4.43;99.99
64198;SHT31;50512;53.666;9.700;2023-12-20T01:28:29;4.43;99.99
64198;SHT31;50512;53.666;9.700;2023-12-20T01:30:57;4.49;99.99
64198;SHT31;50512;53.666;9.700;2023-12-20T01:33:23;4.54;99.99
64198;SHT31;50512;53.666;9.700;2023-12-20T01:35:50;4.58;99.99
64198;SHT31;50512;53.666;9.700;2023-12-20T01:38:17;4.58;99.99
64198;SHT31;50512;53.666;9.700;2023-12-20T01:40:45;4.63;99.99
64198;SHT31;50512;53.666;9.700;2023-12-20T01:43:11;4.67;99.99
64198;SHT31;50512;53.666;9.700;2023-12-20T01:45:38;4.65;99.99
64198;SHT31;50512;53.666;9.700;2023-12-20T01:48:05;4.68;99.99
64198;SHT31;50512;53.666;9.700;2023-12-20T01:50:35;4.65;99.99
64198;SHT31;50512;53.666;9.700;2023-12-20T01:53:02;4.67;99.99
64198;SHT31;50512;53.666;9.700;2023-12-20T01:55:33;4.67;99.99
64198;SHT31;50512;53.666;9.700;2023-12-20T01:58:01;4.67;99.99
64198;SHT31;50512;53.666;9.700;2023-12-20T02:00:28;4.67;99.99
64198;SHT31;50512;53.666;9.700;2023-12-20T02:02:55;4.70;99.99
64198;SHT31;50512;53.666;9.700;2023-12-20T02:05:22;4.82;99.99
64198;SHT31;50512;53.666;9.700;2023-12-20T02:07:48;4.81;99.99
64198;SHT31;50512;53.666;9.700;2023-12-20T02:10:15;4.84;99.99
64198;SHT31;50512;53.666;9.700;2023-12-20T02:12:43;4.82;99.99
64198;SHT31;50512;53.666;9.700;2023-12-20T02:15:09;4.88;99.99
64198;SHT31;50512;53.666;9.700;2023-12-20T02:17:36;4.91;99.99
64198;SHT31;50512;53.666;9.700;2023-12-20T02:20:05;4.93;99.99
64198;SHT31;50512;53.666;9.700;2023-12-20T02:22:34;5.01;99.99
64198;SHT31;50512;53.666;9.700;2023-12-20T02:25:00;5.05;99.99
64198;SHT31;50512;53.666;9.700;2023-12-20T02:27:27;5.09;99.99
64198;SHT31;50512;53.666;9.700;2023-12-20T02:29:55;5.13;99.99
64198;SHT31;50512;53.666;9.700;2023-12-20T02:32:22;5.18;99.99
64198;SHT31;50512;53.666;9.700;2023-12-20T02:34:51;5.25;99.99
64198;SHT31;50512;53.666;9.700;2023-12-20T02:37:17;5.23;99.99
64198;SHT31;50512;53.666;9.700;2023-12-20T02:39:45;5.23;99.99
64198;SHT31;50512;53.666;9.700;2023-12-20T02:42:11;5.30;99.99
64198;SHT31;50512;53.666;9.700;2023-12-20T02:44:38;5.29;99.99
64198;SHT31;50512;53.666;9.700;2023-12-20T02:47:04;5.28;99.99
64198;SHT31;50512;53.666;9.700;2023-12-20T02:49:31;5.29;99.99
64198;SHT31;50512;53.666;9.700;2023-12-20T02:51:57;5.28;99.99
64198;SHT31;50512;53.666;9.700;2023-12-20T02:54:23;5.23;99.99
64198;SHT31;50512;53.666;9.700;2023-12-20T02:56:51;5.19;99.99
64198;SHT31;50512;53.666;9.700;2023-12-20T02:59:18;5.15;99.99
64198;SHT31;50512;53.666;9.700;2023-12-20T03:01:45;5.12;99.99
64198;SHT31;50512;53.666;9.700;2023-12-20T03:04:12;5.15;99.99
64198;SHT31;50512;53.666;9.700;2023-12-20T03:06:38;5.15;99.99
64198;SHT31;50512;53.666;9.700;2023-12-20T03:09:05;5.18;99.99
64198;SHT31;50512;53.666;9.700;2023-12-20T03:11:31;5.30;99.99
64198;SHT31;50512;53.666;9.700;2023-12-20T03:13:59;6.18;99.99
64198;SHT31;50512;53.666;9.700;2023-12-20T03:16:26;6.22;98.54
64198;SHT31;50512;53.666;9.700;2023-12-20T03:18:52;5.71;99.99
64198;SHT31;50512;53.666;9.700;2023-12-20T03:21:18;5.44;99.99
64198;SHT31;50512;53.666;9.700;2023-12-20T03:23:45;5.35;99.99
64198;SHT31;50512;53.666;9.700;2023-12-20T03:26:11;5.29;99.99
64198;SHT31;50512;53.666;9.700;2023-12-20T03:28:38;5.26;99.99
64198;SHT31;50512;53.666;9.700;2023-12-20T03:31:06;5.23;99.99
64198;SHT31;50512;53.666;9.700;2023-12-20T03:33:33;5.19;99.99
64198;SHT31;50512;53.666;9.700;2023-12-20T03:35:59;5.20;99.99
64198;SHT31;50512;53.666;9.700;2023-12-20T03:38:25;5.26;99.99
64198;SHT31;50512;53.666;9.700;2023-12-20T03:40:52;5.23;99.99
64198;SHT31;50512;53.666;9.700;2023-12-20T03:43:18;5.22;99.99
64198;SHT31;50512;53.666;9.700;2023-12-20T03:45:45;5.20;99.99
64198;SHT31;50512;53.666;9.700;2023-12-20T03:48:12;5.20;99.99
64198;SHT31;50512;53.666;9.700;2023-12-20T03:50:39;5.25;99.99
64198;SHT31;50512;53.666;9.700;2023-12-20T03:53:05;5.25;99.99
64198;SHT31;50512;53.666;9.700;2023-12-20T03:55:32;5.20;99.99
64198;SHT31;50512;53.666;9.700;2023-12-20T03:57:58;5.16;99.99
64198;SHT31;50512;53.666;9.700;2023-12-20T04:00:25;5.22;99.99
64198;SHT31;50512;53.666;9.700;2023-12-20T04:02:51;5.20;99.99
64198;SHT31;50512;53.666;9.700;2023-12-20T04:05:19;5.23;99.99
64198;SHT31;50512;53.666;9.700;2023-12-20T04:07:46;5.19;99.99
64198;SHT31;50512;53.666;9.700;2023-12-20T04:10:12;5.16;99.99
64198;SHT31;50512;53.666;9.700;2023-12-20T04:12:39;5.20;99.99
64198;SHT31;50512;53.666;9.700;2023-12-20T04:15:06;5.20;99.99
64198;SHT31;50512;53.666;9.700;2023-12-20T04:17:34;5.22;99.99
64198;SHT31;50512;53.666;9.700;2023-12-20T04:20:01;5.22;99.99
64198;SHT31;50512;53.666;9.700;2023-12-20T04:22:29;5.25;99.99
64198;SHT31;50512;53.666;9.700;2023-12-20T04:24:55;5.26;99.99
64198;SHT31;50512;53.666;9.700;2023-12-20T04:27:22;5.25;99.99
64198;SHT31;50512;53.666;9.700;2023-12-20T04:29:48;5.26;99.99
64198;SHT31;50512;53.666;9.700;2023-12-20T04:32:14;5.25;99.99
64198;SHT31;50512;53.666;9.700;2023-12-20T04:34:41;5.28;99.99
64198;SHT31;50512;53.666;9.700;2023-12-20T04:37:07;5.32;99.99
64198;SHT31;50512;53.666;9.700;2023-12-20T04:39:35;5.30;99.99
64198;SHT31;50512;53.666;9.700;2023-12-20T04:42:01;5.30;99.99
64198;SHT31;50512;53.666;9.700;2023-12-20T04:44:28;5.29;99.99
64198;SHT31;50512;53.666;9.700;2023-12-20T04:46:54;5.30;99.99
64198;SHT31;50512;53.666;9.700;2023-12-20T04:49:21;5.32;99.99
64198;SHT31;50512;53.666;9.700;2023-12-20T04:51:48;5.30;99.99
64198;SHT31;50512;53.666;9.700;2023-12-20T04:54:15;5.33;99.99
64198;SHT31;50512;53.666;9.700;2023-12-20T04:56:43;5.36;99.99
64198;SHT31;50512;53.666;9.700;2023-12-20T04:59:10;5.39;99.99
64198;SHT31;50512;53.666;9.700;2023-12-20T05:01:36;5.42;99.99
64198;SHT31;50512;53.666;9.700;2023-12-20T05:04:03;5.40;99.99
64198;SHT31;50512;53.666;9.700;2023-12-20T05:06:29;5.36;99.99
64198;SHT31;50512;53.666;9.700;2023-12-20T05:08:56;5.35;99.99
64198;SHT31;50512;53.666;9.700;2023-12-20T05:11:22;5.43;99.99
64198;SHT31;50512;53.666;9.700;2023-12-20T05:13:50;5.47;99.99
64198;SHT31;50512;53.666;9.700;2023-12-20T05:16:16;5.50;99.99
64198;SHT31;50512;53.666;9.700;2023-12-20T05:18:45;5.54;99.99
64198;SHT31;50512;53.666;9.700;2023-12-20T05:21:12;5.60;99.99
64198;SHT31;50512;53.666;9.700;2023-12-20T05:23:38;5.58;99.99
64198;SHT31;50512;53.666;9.700;2023-12-20T05:26:04;5.51;99.99
64198;SHT31;50512;53.666;9.700;2023-12-20T05:28:31;5.50;99.99
64198;SHT31;50512;53.666;9.700;2023-12-20T05:30:59;5.53;99.99
64198;SHT31;50512;53.666;9.700;2023-12-20T05:33:25;5.53;99.99
64198;SHT31;50512;53.666;9.700;2023-12-20T05:35:52;5.53;99.99
64198;SHT31;50512;53.666;9.700;2023-12-20T05:38:18;5.50;99.99
64198;SHT31;50512;53.666;9.700;2023-12-20T05:40:45;5.51;99.99
64198;SHT31;50512;53.666;9.700;2023-12-20T05:43:11;5.54;99.99
64198;SHT31;50512;53.666;9.700;2023-12-20T05:45:37;5.56;99.99
64198;SHT31;50512;53.666;9.700;2023-12-20T05:48:06;5.58;99.99
64198;SHT31;50512;53.666;9.700;2023-12-20T05:50:32;5.57;99.99
64198;SHT31;50512;53.666;9.700;2023-12-20T05:53:00;5.57;99.99
64198;SHT31;50512;53.666;9.700;2023-12-20T05:55:26;5.60;99.99
64198;SHT31;50512;53.666;9.700;2023-12-20T05:57:53;5.60;99.99
64198;SHT31;50512;53.666;9.700;2023-12-20T06:00:19;5.60;99.99
64198;SHT31;50512;53.666;9.700;2023-12-20T06:02:45;5.61;99.99
64198;SHT31;50512;53.666;9.700;2023-12-20T06:05:13;5.50;99.99
64198;SHT31;50512;53.666;9.700;2023-12-20T06:07:40;5.61;99.99
64198;SHT31;50512;53.666;9.700;2023-12-20T06:10:07;5.71;99.99
64198;SHT31;50512;53.666;9.700;2023-12-20T06:12:33;5.71;99.99
64198;SHT31;50512;53.666;9.700;2023-12-20T06:15:01;5.70;99.99
64198;SHT31;50512;53.666;9.700;2023-12-20T06:17:27;5.71;99.99
64198;SHT31;50512;53.666;9.700;2023-12-20T06:19:55;5.71;99.99
64198;SHT31;50512;53.666;9.700;2023-12-20T06:22:23;5.74;99.99
64198;SHT31;50512;53.666;9.700;2023-12-20T06:24:50;5.74;99.99
64198;SHT31;50512;53.666;9.700;2023-12-20T06:27:16;5.77;99.99
64198;SHT31;50512;53.666;9.700;2023-12-20T06:29:42;5.73;99.99
64198;SHT31;50512;53.666;9.700;2023-12-20T06:32:10;5.68;99.99
64198;SHT31;50512;53.666;9.700;2023-12-20T06:34:36;5.70;99.99
64198;SHT31;50512;53.666;9.700;2023-12-20T06:37:03;5.65;99.99
64198;SHT31;50512;53.666;9.700;2023-12-20T06:39:31;5.73;99.99
64198;SHT31;50512;53.666;9.700;2023-12-20T06:41:59;5.73;99.99
64198;SHT31;50512;53.666;9.700;2023-12-20T06:44:25;5.77;99.99
64198;SHT31;50512;53.666;9.700;2023-12-20T06:46:52;5.75;99.99
64198;SHT31;50512;53.666;9.700;2023-12-20T06:49:18;5.81;99.99
64198;SHT31;50512;53.666;9.700;2023-12-20T06:51:45;5.81;99.99
64198;SHT31;50512;53.666;9.700;2023-12-20T06:54:11;5.82;99.99
64198;SHT31;50512;53.666;9.700;2023-12-20T06:56:39;5.79;99.99
64198;SHT31;50512;53.666;9.700;2023-12-20T06:59:06;5.79;99.99
64198;SHT31;50512;53.666;9.700;2023-12-20T07:01:32;5.75;99.99
64198;SHT31;50512;53.666;9.700;2023-12-20T07:03:59;5.77;99.99
64198;SHT31;50512;53.666;9.700;2023-12-20T07:06:25;5.78;99.99
64198;SHT31;50512;53.666;9.700;2023-12-20T07:08:52;5.79;99.99
64198;SHT31;50512;53.666;9.700;2023-12-20T07:11:18;5.82;99.99
64198;SHT31;50512;53.666;9.700;2023-12-20T07:13:46;5.87;99.99
64198;SHT31;50512;53.666;9.700;2023-12-20T07:16:12;5.94;99.99
64198;SHT31;50512;53.666;9.700;2023-12-20T07:18:39;5.92;99.99
64198;SHT31;50512;53.666;9.700;2023-12-20T07:21:06;5.87;99.99
64198;SHT31;50512;53.666;9.700;2023-12-20T07:23:33;5.84;99.99
64198;SHT31;50512;53.666;9.700;2023-12-20T07:25:59;5.90;99.99
64198;SHT31;50512;53.666;9.700;2023-12-20T07:28:26;5.94;99.99
64198;SHT31;50512;53.666;9.700;2023-12-20T07:30:53;5.94;99.99
64198;SHT31;50512;53.666;9.700;2023-12-20T07:33:20;5.97;99.99
64198;SHT31;50512;53.666;9.700;2023-12-20T07:35:47;6.01;99.99
64198;SHT31;50512;53.666;9.700;2023-12-20T07:38:13;5.94;99.99
64198;SHT31;50512;53.666;9.700;2023-12-20T07:40:39;5.92;99.99
64198;SHT31;50512;53.666;9.700;2023-12-20T07:43:06;5.98;99.99
64198;SHT31;50512;53.666;9.700;2023-12-20T07:45:32;5.99;99.99
64198;SHT31;50512;53.666;9.700;2023-12-20T07:48:00;5.97;99.99
64198;SHT31;50512;53.666;9.700;2023-12-20T07:50:26;5.97;99.99
64198;SHT31;50512;53.666;9.700;2023-12-20T07:52:53;5.98;99.99
64198;SHT31;50512;53.666;9.700;2023-12-20T07:55:19;6.02;99.99
64198;SHT31;50512;53.666;9.700;2023-12-20T07:57:46;6.03;99.99
64198;SHT31;50512;53.666;9.700;2023-12-20T08:00:13;6.09;99.99
64198;SHT31;50512;53.666;9.700;2023-12-20T08:02:39;6.13;99.99
64198;SHT31;50512;53.666;9.700;2023-12-20T08:05:07;6.15;99.99
64198;SHT31;50512;53.666;9.700;2023-12-20T08:07:34;6.16;99.99
64198;SHT31;50512;53.666;9.700;2023-12-20T08:10:01;6.18;99.99
64198;SHT31;50512;53.666;9.700;2023-12-20T08:12:27;6.09;99.99
64198;SHT31;50512;53.666;9.700;2023-12-20T08:14:54;6.05;99.99
64198;SHT31;50512;53.666;9.700;2023-12-20T08:17:22;6.05;99.99
64198;SHT31;50512;53.666;9.700;2023-12-20T08:19:49;6.06;99.99
64198;SHT31;50512;53.666;9.700;2023-12-20T08:22:16;6.11;99.99
64198;SHT31;50512;53.666;9.700;2023-12-20T08:24:43;6.13;99.99
64198;SHT31;50512;53.666;9.700;2023-12-20T08:27:09;6.23;99.99
64198;SHT31;50512;53.666;9.700;2023-12-20T08:29:36;6.32;99.99
64198;SHT31;50512;53.666;9.700;2023-12-20T08:32:03;6.41;99.99
64198;SHT31;50512;53.666;9.700;2023-12-20T08:34:30;6.46;99.99
64198;SHT31;50512;53.666;9.700;2023-12-20T08:36:56;6.48;99.99
64198;SHT31;50512;53.666;9.700;2023-12-20T08:39:24;6.37;99.99
64198;SHT31;50512;53.666;9.700;2023-12-20T08:41:50;6.30;99.99
64198;SHT31;50512;53.666;9.700;2023-12-20T08:44:17;6.32;99.99
64198;SHT31;50512;53.666;9.700;2023-12-20T08:46:44;6.26;99.99
64198;SHT31;50512;53.666;9.700;2023-12-20T08:49:10;6.25;99.99
64198;SHT31;50512;53.666;9.700;2023-12-20T08:51:36;6.28;99.99
64198;SHT31;50512;53.666;9.700;2023-12-20T08:54:05;6.44;99.99
64198;SHT31;50512;53.666;9.700;2023-12-20T08:56:34;6.30;99.99
64198;SHT31;50512;53.666;9.700;2023-12-20T08:59:01;6.19;99.99
64198;SHT31;50512;53.666;9.700;2023-12-20T09:01:27;6.16;99.99
64198;SHT31;50512;53.666;9.700;2023-12-20T09:03:54;6.13;99.99
64198;SHT31;50512;53.666;9.700;2023-12-20T09:06:20;6.09;99.99
64198;SHT31;50512;53.666;9.700;2023-12-20T09:08:47;6.03;99.99
64198;SHT31;50512;53.666;9.700;2023-12-20T09:11:13;5.90;99.99
64198;SHT31;50512;53.666;9.700;2023-12-20T09:13:41;5.77;99.99
64198;SHT31;50512;53.666;9.700;2023-12-20T09:16:08;5.68;99.99
64198;SHT31;50512;53.666;9.700;2023-12-20T09:18:34;5.63;99.99
64198;SHT31;50512;53.666;9.700;2023-12-20T09:21:01;5.70;99.99
64198;SHT31;50512;53.666;9.700;2023-12-20T09:23:27;5.56;99.99
64198;SHT31;50512;53.666;9.700;2023-12-20T09:25:54;5.47;99.99
64198;SHT31;50512;53.666;9.700;2023-12-20T09:28:20;5.47;99.99
64198;SHT31;50512;53.666;9.700;2023-12-20T09:30:48;5.40;99.99
64198;SHT31;50512;53.666;9.700;2023-12-20T09:33:14;5.42;99.99
64198;SHT31;50512;53.666;9.700;2023-12-20T09:35:41;5.67;99.92
64198;SHT31;50512;53.666;9.700;2023-12-20T09:38:08;5.87;98.58
64198;SHT31;50512;53.666;9.700;2023-12-20T09:40:34;5.75;97.92
64198;SHT31;50512;53.666;9.700;2023-12-20T09:43:03;5.65;98.63
64198;SHT31;50512;53.666;9.700;2023-12-20T09:45:31;5.46;99.00
64198;SHT31;50512;53.666;9.700;2023-12-20T09:47:59;5.30;98.45
64198;SHT31;50512;53.666;9.700;2023-12-20T09:50:25;5.22;99.58
64198;SHT31;50512;53.666;9.700;2023-12-20T09:52:53;5.13;99.70
64198;SHT31;50512;53.666;9.700;2023-12-20T09:55:21;5.07;99.73
64198;SHT31;50512;53.666;9.700;2023-12-20T09:57:48;4.98;99.55
64198;SHT31;50512;53.666;9.700;2023-12-20T10:00:16;5.05;99.99
64198;SHT31;50512;53.666;9.700;2023-12-20T10:02:47;4.91;99.91
64198;SHT31;50512;53.666;9.700;2023-12-20T10:05:17;5.01;99.99
64198;SHT31;50512;53.666;9.700;2023-12-20T10:07:45;4.99;99.99
64198;SHT31;50512;53.666;9.700;2023-12-20T10:10:13;4.96;99.99
64198;SHT31;50512;53.666;9.700;2023-12-20T10:12:39;4.99;99.99
64198;SHT31;50512;53.666;9.700;2023-12-20T10:15:06;5.05;99.99
64198;SHT31;50512;53.666;9.700;2023-12-20T10:17:35;4.98;99.99
64198;SHT31;50512;53.666;9.700;2023-12-20T10:20:02;4.96;99.99
64198;SHT31;50512;53.666;9.700;2023-12-20T10:22:36;5.02;99.99
64198;SHT31;50512;53.666;9.700;2023-12-20T10:25:03;4.98;99.93
64198;SHT31;50512;53.666;9.700;2023-12-20T10:27:30;5.01;99.99
64198;SHT31;50512;53.666;9.700;2023-12-20T10:29:58;5.08;99.99
64198;SHT31;50512;53.666;9.700;2023-12-20T10:32:25;5.13;99.99
64198;SHT31;50512;53.666;9.700;2023-12-20T10:34:53;5.08;99.99
64198;SHT31;50512;53.666;9.700;2023-12-20T10:37:20;5.02;99.99
64198;SHT31;50512;53.666;9.700;2023-12-20T10:39:50;5.05;99.99
64198;SHT31;50512;53.666;9.700;2023-12-20T10:42:19;5.05;99.99
64198;SHT31;50512;53.666;9.700;2023-12-20T10:44:46;5.04;99.99
64198;SHT31;50512;53.666;9.700;2023-12-20T10:47:13;5.07;99.99
64198;SHT31;50512;53.666;9.700;2023-12-20T10:49:40;5.09;99.99
64198;SHT31;50512;53.666;9.700;2023-12-20T10:52:09;5.11;99.99
64198;SHT31;50512;53.666;9.700;2023-12-20T10:54:35;5.08;99.99
64198;SHT31;50512;53.666;9.700;2023-12-20T10:57:05;5.08;99.99
64198;SHT31;50512;53.666;9.700;2023-12-20T10:59:33;5.12;99.99
64198;SHT31;50512;53.666;9.700;2023-12-20T11:02:02;5.12;99.99
64198;SHT31;50512;53.666;9.700;2023-12-20T11:04:36;5.16;99.99
64198;SHT31;50512;53.666;9.700;2023-12-20T11:07:12;5.13;99.99
64198;SHT31;50512;53.666;9.700;2023-12-20T11:09:48;5.09;99.99
64198;SHT31;50512;53.666;9.700;2023-12-20T11:12:20;4.42;99.99
64198;SHT31;50512;53.666;9.700;2023-12-20T11:14:51;4.33;99.99
64198;SHT31;50512;53.666;9.700;2023-12-20T11:17:18;4.28;99.99
64198;SHT31;50512;53.666;9.700;2023-12-20T11:20:09;4.39;99.99
64198;SHT31;50512;53.666;9.700;2023-12-20T11:22:37;4.47;99.99
64198;SHT31;50512;53.666;9.700;2023-12-20T11:25:08;4.73;99.99
64198;SHT31;50512;53.666;9.700;2023-12-20T11:27:36;4.77;99.99
64198;SHT31;50512;53.666;9.700;2023-12-20T11:30:04;4.85;99.99
64198;SHT31;50512;53.666;9.700;2023-12-20T11:32:33;4.89;99.99
64198;SHT31;50512;53.666;9.700;2023-12-20T11:35:01;4.87;99.99
64198;SHT31;50512;53.666;9.700;2023-12-20T11:37:42;4.92;99.99
64198;SHT31;50512;53.666;9.700;2023-12-20T11:40:12;5.01;99.99
64198;SHT31;50512;53.666;9.700;2023-12-20T11:42:42;5.12;99.99
64198;SHT31;50512;53.666;9.700;2023-12-20T11:45:09;5.19;99.99
64198;SHT31;50512;53.666;9.700;2023-12-20T11:47:36;5.23;99.99
64198;SHT31;50512;53.666;9.700;2023-12-20T11:50:03;5.26;99.99
64198;SHT31;50512;53.666;9.700;2023-12-20T11:52:30;5.37;99.99
64198;SHT31;50512;53.666;9.700;2023-12-20T11:54:57;5.48;99.99
64198;SHT31;50512;53.666;9.700;2023-12-20T11:57:24;5.58;99.99
64198;SHT31;50512;53.666;9.700;2023-12-20T11:59:52;5.64;99.99
64198;SHT31;50512;53.666;9.700;2023-12-20T12:02:18;5.70;99.99
64198;SHT31;50512;53.666;9.700;2023-12-20T12:04:45;5.67;99.99
64198;SHT31;50512;53.666;9.700;2023-12-20T12:07:11;5.68;99.99
64198;SHT31;50512;53.666;9.700;2023-12-20T12:09:38;5.68;99.99
64198;SHT31;50512;53.666;9.700;2023-12-20T12:12:05;5.79;99.99
64198;SHT31;50512;53.666;9.700;2023-12-20T12:14:32;6.01;99.99
64198;SHT31;50512;53.666;9.700;2023-12-20T12:17:02;6.23;99.99
64198;SHT31;50512;53.666;9.700;2023-12-20T12:19:29;6.39;99.58
64198;SHT31;50512;53.666;9.700;2023-12-20T12:22:07;6.40;98.59
64198;SHT31;50512;53.666;9.700;2023-12-20T12:24:36;6.30;97.55
64198;SHT31;50512;53.666;9.700;2023-12-20T12:27:03;6.25;97.31
64198;SHT31;50512;53.666;9.700;2023-12-20T12:29:29;6.20;97.06
64198;SHT31;50512;53.666;9.700;2023-12-20T12:31:56;6.18;97.02
64198;SHT31;50512;53.666;9.700;2023-12-20T12:34:24;6.12;96.05
64198;SHT31;50512;53.666;9.700;2023-12-20T12:36:51;6.11;96.49
64198;SHT31;50512;53.666;9.700;2023-12-20T12:39:18;6.06;96.92
64198;SHT31;50512;53.666;9.700;2023-12-20T12:41:45;6.12;97.55
64198;SHT31;50512;53.666;9.700;2023-12-20T12:44:11;6.11;96.36
64198;SHT31;50512;53.666;9.700;2023-12-20T12:46:38;6.06;96.40
64198;SHT31;50512;53.666;9.700;2023-12-20T12:49:04;6.03;96.29
64198;SHT31;50512;53.666;9.700;2023-12-20T12:51:32;5.99;96.55
64198;SHT31;50512;53.666;9.700;2023-12-20T12:53:58;5.99;96.94
64198;SHT31;50512;53.666;9.700;2023-12-20T12:56:25;5.90;97.16
64198;SHT31;50512;53.666;9.700;2023-12-20T12:58:52;5.87;97.35
64198;SHT31;50512;53.666;9.700;2023-12-20T13:01:18;5.88;97.22
64198;SHT31;50512;53.666;9.700;2023-12-20T13:03:45;5.88;96.64
64198;SHT31;50512;53.666;9.700;2023-12-20T13:06:12;5.87;97.05
64198;SHT31;50512;53.666;9.700;2023-12-20T13:08:39;5.90;96.72
64198;SHT31;50512;53.666;9.700;2023-12-20T13:11:07;5.94;96.68
64198;SHT31;50512;53.666;9.700;2023-12-20T13:13:33;5.99;96.30
64198;SHT31;50512;53.666;9.700;2023-12-20T13:15:59;6.06;96.43
64198;SHT31;50512;53.666;9.700;2023-12-20T13:18:26;6.12;95.45
64198;SHT31;50512;53.666;9.700;2023-12-20T13:20:52;6.22;95.88
64198;SHT31;50512;53.666;9.700;2023-12-20T13:23:19;6.22;95.30
64198;SHT31;50512;53.666;9.700;2023-12-20T13:25:46;6.22;94.89
64198;SHT31;50512;53.666;9.700;2023-12-20T13:28:13;6.20;94.69
64198;SHT31;50512;53.666;9.700;2023-12-20T13:30:40;6.19;93.31
64198;SHT31;50512;53.666;9.700;2023-12-20T13:33:07;6.13;93.58
64198;SHT31;50512;53.666;9.700;2023-12-20T13:35:33;6.11;93.68
64198;SHT31;50512;53.666;9.700;2023-12-20T13:38:00;6.06;93.36
64198;SHT31;50512;53.666;9.700;2023-12-20T13:40:27;6.01;93.95
64198;SHT31;50512;53.666;9.700;2023-12-20T13:42:55;5.97;93.63
64198;SHT31;50512;53.666;9.700;2023-12-20T13:45:21;6.01;93.61
64198;SHT31;50512;53.666;9.700;2023-12-20T13:47:48;5.97;93.99
64198;SHT31;50512;53.666;9.700;2023-12-20T13:50:14;5.95;93.89
64198;SHT31;50512;53.666;9.700;2023-12-20T13:52:41;5.97;93.71
64198;SHT31;50512;53.666;9.700;2023-12-20T13:55:08;5.98;92.62
64198;SHT31;50512;53.666;9.700;2023-12-20T13:57:35;5.99;92.60
64198;SHT31;50512;53.666;9.700;2023-12-20T14:00:06;5.98;92.25
64198;SHT31;50512;53.666;9.700;2023-12-20T14:02:40;5.98;91.89
64198;SHT31;50512;53.666;9.700;2023-12-20T14:05:06;6.02;92.39
64198;SHT31;50512;53.666;9.700;2023-12-20T14:07:33;5.97;92.32
64198;SHT31;50512;53.666;9.700;2023-12-20T14:09:59;6.01;92.73
64198;SHT31;50512;53.666;9.700;2023-12-20T14:12:26;6.02;91.96
64198;SHT31;50512;53.666;9.700;2023-12-20T14:14:52;6.02;92.09
64198;SHT31;50512;53.666;9.700;2023-12-20T14:17:22;6.03;91.50
64198;SHT31;50512;53.666;9.700;2023-12-20T14:19:49;6.02;92.20
64198;SHT31;50512;53.666;9.700;2023-12-20T14:22:16;5.95;91.97
64198;SHT31;50512;53.666;9.700;2023-12-20T14:24:43;5.94;91.58
64198;SHT31;50512;53.666;9.700;2023-12-20T14:27:10;5.95;91.76
64198;SHT31;50512;53.666;9.700;2023-12-20T14:29:38;5.88;91.67
64198;SHT31;50512;53.666;9.700;2023-12-20T14:32:05;5.85;92.25
64198;SHT31;50512;53.666;9.700;2023-12-20T14:34:33;5.84;91.94
64198;SHT31;50512;53.666;9.700;2023-12-20T14:36:59;5.84;92.09
64198;SHT31;50512;53.666;9.700;2023-12-20T14:39:26;5.85;91.85
64198;SHT31;50512;53.666;9.700;2023-12-20T14:41:52;5.85;92.07
64198;SHT31;50512;53.666;9.700;2023-12-20T14:44:19;5.85;92.31
64198;SHT31;50512;53.666;9.700;2023-12-20T14:46:46;5.84;93.15
64198;SHT31;50512;53.666;9.700;2023-12-20T14:49:13;5.79;93.15
64198;SHT31;50512;53.666;9.700;2023-12-20T14:51:43;5.75;92.98
64198;SHT31;50512;53.666;9.700;2023-12-20T14:54:10;5.74;93.04
64198;SHT31;50512;53.666;9.700;2023-12-20T14:56:36;5.75;93.36
64198;SHT31;50512;53.666;9.700;2023-12-20T14:59:02;5.75;92.85
64198;SHT31;50512;53.666;9.700;2023-12-20T15:01:29;5.77;93.15
64198;SHT31;50512;53.666;9.700;2023-12-20T15:03:56;5.81;92.46
64198;SHT31;50512;53.666;9.700;2023-12-20T15:06:22;5.81;92.64
64198;SHT31;50512;53.666;9.700;2023-12-20T15:08:52;5.75;93.13
64198;SHT31;50512;53.666;9.700;2023-12-20T15:11:18;5.73;92.76
64198;SHT31;50512;53.666;9.700;2023-12-20T15:13:45;5.68;92.93
64198;SHT31;50512;53.666;9.700;2023-12-20T15:16:13;5.64;93.28
64198;SHT31;50512;53.666;9.700;2023-12-20T15:18:40;5.63;93.31
64198;SHT31;50512;53.666;9.700;2023-12-20T15:21:06;5.58;94.15
64198;SHT31;50512;53.666;9.700;2023-12-20T15:23:32;5.57;94.29
64198;SHT31;50512;53.666;9.700;2023-12-20T15:26:00;5.53;94.51
64198;SHT31;50512;53.666;9.700;2023-12-20T15:28:27;5.37;95.39
64198;SHT31;50512;53.666;9.700;2023-12-20T15:30:54;5.29;95.56
64198;SHT31;50512;53.666;9.700;2023-12-20T15:33:21;5.32;95.22
64198;SHT31;50512;53.666;9.700;2023-12-20T15:35:47;5.28;95.29
64198;SHT31;50512;53.666;9.700;2023-12-20T15:38:14;5.29;94.95
64198;SHT31;50512;53.666;9.700;2023-12-20T15:40:40;5.29;94.77
64198;SHT31;50512;53.666;9.700;2023-12-20T15:43:08;5.32;94.73